Time;durP1;ratioP1;P1;durP2;ratioP2;P2;SDS_P1;SDS_P2;PMS_P1;PMS_P2;Temp;Humidity;BMP_temperature;BMP_pressure;BME280_temperature;BME280_humidity;BME280_pressure;Samples;Min_cycle;Max_cycle;Signal;HPM_P1;HPM_P2
2020/12/08 00:01:57;;;;;;;0.00;0.00;;;;;;;;;;4919151;28;20165;-64
2020/12/08 00:04:27;;;;;;;0.28;0.28;;;;;;;;;;4905230;29;20036;-63
2020/12/08 00:06:58;;;;;;;0.15;0.15;;;;;;;;;;4905189;29;20106;-63
2020/12/08 00:09:26;;;;;;;0.00;0.00;;;;;;;;;;4903837;29;20046;-63
2020/12/08 00:11:53;;;;;;;0.15;0.15;;;;;;;;;;4921785;28;20139;-63
2020/12/08 00:14:27;;;;;;;0.65;0.65;;;;;;;;;;4905145;29;20052;-63
2020/12/08 00:16:57;;;;;;;0.00;0.00;;;;;;;;;;4905276;29;20088;-63
2020/12/08 00:19:25;;;;;;;0.00;0.00;;;;;;;;;;4905122;29;20534;-64
2020/12/08 00:21:50;;;;;;;0.15;0.15;;;;;;;;;;4904354;29;20051;-61
2020/12/08 00:24:16;;;;;;;0.00;0.00;;;;;;;;;;4906547;29;20035;-64
2020/12/08 00:26:42;;;;;;;0.00;0.00;;;;;;;;;;4906424;29;20248;-64
2020/12/08 00:29:07;;;;;;;0.32;0.32;;;;;;;;;;4907461;29;20032;-64
2020/12/08 00:31:33;;;;;;;0.32;0.32;;;;;;;;;;4906909;29;20725;-63
2020/12/08 00:33:59;;;;;;;0.73;0.73;;;;;;;;;;4906580;29;20028;-64
2020/12/08 00:36:29;;;;;;;0.00;0.00;;;;;;;;;;4921088;28;20413;-63
2020/12/08 00:38:54;;;;;;;0.00;0.00;;;;;;;;;;4905420;29;20059;-63
2020/12/08 00:45:00;;;;;;;0.22;0.22;;;;;;;;;;4904202;29;20150;-63
2020/12/08 00:47:26;;;;;;;1.65;0.57;;;;;;;;;;4905413;29;20044;-63
2020/12/08 00:49:53;;;;;;;0.00;0.00;;;;;;;;;;4903755;29;20122;-63
2020/12/08 00:52:26;;;;;;;0.00;0.00;;;;;;;;;;4919961;28;20157;-63
2020/12/08 00:55:07;;;;;;;0.00;0.00;;;;;;;;;;4901917;29;20039;-63
2020/12/08 00:57:35;;;;;;;0.10;0.10;;;;;;;;;;4906008;29;20074;-62
2020/12/08 01:00:03;;;;;;;0.00;0.00;;;;;;;;;;4919295;28;20024;-63
2020/12/08 01:02:29;;;;;;;0.20;0.20;;;;;;;;;;4904807;29;20693;-62
2020/12/08 01:04:54;;;;;;;0.00;0.00;;;;;;;;;;4919176;28;21768;-63
2020/12/08 01:07:25;;;;;;;5.47;2.35;;;;;;;;;;4904213;29;20028;-64
2020/12/08 01:09:51;;;;;;;0.00;0.00;;;;;;;;;;4902865;29;20111;-63
2020/12/08 01:12:16;;;;;;;0.05;0.05;;;;;;;;;;4904939;29;20246;-62
2020/12/08 01:14:44;;;;;;;4.38;2.30;;;;;;;;;;4904279;29;20051;-64
2020/12/08 01:17:12;;;;;;;0.00;0.00;;;;;;;;;;4903990;29;20596;-63
2020/12/08 01:19:42;;;;;;;1.15;1.05;;;;;;;;;;4906228;29;20043;-63
2020/12/08 01:22:08;;;;;;;0.00;0.00;;;;;;;;;;4919786;28;20039;-63
2020/12/08 01:24:36;;;;;;;0.00;0.00;;;;;;;;;;4904811;29;20163;-64
2020/12/08 01:27:02;;;;;;;0.00;0.00;;;;;;;;;;4904689;29;20130;-64
2020/12/08 01:29:30;;;;;;;0.00;0.00;;;;;;;;;;4904440;29;20040;-63
2020/12/08 01:31:58;;;;;;;0.05;0.05;;;;;;;;;;4902966;29;21818;-63
2020/12/08 01:34:28;;;;;;;0.00;0.00;;;;;;;;;;4903442;29;20036;-62
2020/12/08 01:36:56;;;;;;;0.80;0.80;;;;;;;;;;4903168;29;20047;-63
2020/12/08 01:39:26;;;;;;;0.15;0.15;;;;;;;;;;4889218;29;20146;-62
2020/12/08 01:41:57;;;;;;;0.00;0.00;;;;;;;;;;4904529;29;20042;-64
2020/12/08 01:44:25;;;;;;;0.00;0.00;;;;;;;;;;4917071;28;20118;-63
2020/12/08 01:47:16;;;;;;;0.15;0.15;;;;;;;;;;4904356;29;20036;-62
2020/12/08 01:49:47;;;;;;;0.00;0.00;;;;;;;;;;4904082;29;20044;-63
2020/12/08 01:52:17;;;;;;;2.28;0.57;;;;;;;;;;4904131;29;20645;-63
2020/12/08 01:54:44;;;;;;;0.00;0.00;;;;;;;;;;4903657;29;20162;-62
2020/12/08 01:57:10;;;;;;;0.00;0.00;;;;;;;;;;4903736;29;20146;-64
2020/12/08 01:59:35;;;;;;;0.30;0.30;;;;;;;;;;4905302;29;20023;-63
2020/12/08 02:02:02;;;;;;;0.00;0.00;;;;;;;;;;4904174;29;20043;-66
2020/12/08 02:08:05;;;;;;;2.10;0.85;;;;;;;;;;4905613;29;20156;-63
2020/12/08 02:10:33;;;;;;;0.00;0.00;;;;;;;;;;4919999;28;21670;-62
2020/12/08 02:13:04;;;;;;;0.15;0.15;;;;;;;;;;4905497;29;20119;-63
2020/12/08 02:15:30;;;;;;;0.03;0.03;;;;;;;;;;4906802;29;20094;-63
2020/12/08 02:17:59;;;;;;;0.50;0.50;;;;;;;;;;4907819;29;20391;-63
2020/12/08 02:20:27;;;;;;;0.00;0.00;;;;;;;;;;4909329;29;20384;-63
2020/12/08 02:22:57;;;;;;;0.10;0.10;;;;;;;;;;4908637;29;20110;-63
2020/12/08 02:25:24;;;;;;;0.03;0.03;;;;;;;;;;4906256;29;20115;-63
2020/12/08 02:27:50;;;;;;;0.00;0.00;;;;;;;;;;4906440;29;20983;-64
2020/12/08 02:30:18;;;;;;;0.05;0.05;;;;;;;;;;4908161;29;21690;-63
2020/12/08 02:32:45;;;;;;;0.00;0.00;;;;;;;;;;4906910;29;21755;-64
2020/12/08 02:35:13;;;;;;;0.00;0.00;;;;;;;;;;4905986;29;21065;-62
2020/12/08 02:37:42;;;;;;;0.00;0.00;;;;;;;;;;4922907;28;20435;-62
2020/12/08 02:40:09;;;;;;;0.00;0.00;;;;;;;;;;4905708;29;20054;-64
2020/12/08 02:42:37;;;;;;;0.10;0.10;;;;;;;;;;4906433;29;20127;-62
2020/12/08 02:45:03;;;;;;;0.47;0.47;;;;;;;;;;4922780;28;20055;-64
2020/12/08 02:47:49;;;;;;;1.40;1.40;;;;;;;;;;4908922;29;20089;-64
2020/12/08 02:50:19;;;;;;;0.00;0.00;;;;;;;;;;4891214;29;20036;-63
2020/12/08 02:52:44;;;;;;;0.00;0.00;;;;;;;;;;4907657;29;20047;-63
2020/12/08 02:55:15;;;;;;;0.00;0.00;;;;;;;;;;4922767;28;20558;-63
2020/12/08 02:57:40;;;;;;;0.00;0.00;;;;;;;;;;4908005;29;20055;-63
2020/12/08 03:00:08;;;;;;;0.08;0.08;;;;;;;;;;4905803;29;20346;-64
2020/12/08 03:02:36;;;;;;;0.32;0.32;;;;;;;;;;4907092;29;20794;-64
2020/12/08 03:05:04;;;;;;;0.00;0.00;;;;;;;;;;4906740;29;20036;-62
2020/12/08 03:07:34;;;;;;;0.00;0.00;;;;;;;;;;4905117;29;20028;-63
2020/12/08 03:10:00;;;;;;;1.00;0.25;;;;;;;;;;4906325;29;20183;-64
2020/12/08 03:12:27;;;;;;;0.10;0.10;;;;;;;;;;4905728;29;20067;-63
2020/12/08 03:14:55;;;;;;;1.00;0.82;;;;;;;;;;4905292;28;20407;-63
2020/12/08 03:17:23;;;;;;;0.00;0.00;;;;;;;;;;4907084;29;20038;-63
2020/12/08 03:19:52;;;;;;;0.17;0.17;;;;;;;;;;4905795;29;21660;-62
2020/12/08 03:22:17;;;;;;;0.00;0.00;;;;;;;;;;4906981;29;20046;-62
2020/12/08 03:24:50;;;;;;;0.00;0.00;;;;;;;;;;4905477;29;20080;-64
2020/12/08 03:27:19;;;;;;;0.00;0.00;;;;;;;;;;4890089;29;20460;-64
2020/12/08 03:29:47;;;;;;;0.00;0.00;;;;;;;;;;4906271;29;20685;-63
2020/12/08 03:32:14;;;;;;;0.00;0.00;;;;;;;;;;4907575;29;20040;-62
2020/12/08 03:34:40;;;;;;;0.00;0.00;;;;;;;;;;4906906;29;20027;-64
2020/12/08 03:40:48;;;;;;;0.00;0.00;;;;;;;;;;4907743;29;20038;-62
2020/12/08 03:43:16;;;;;;;;;;;;;;;;;;4923225;28;20050;-62
2020/12/08 03:45:46;;;;;;;0.00;0.00;;;;;;;;;;4921322;28;19918;-64
2020/12/08 03:48:14;;;;;;;0.15;0.15;;;;;;;;;;4890312;29;20571;-63
2020/12/08 03:50:45;;;;;;;0.00;0.00;;;;;;;;;;4906055;29;20039;-64
2020/12/08 03:53:13;;;;;;;0.00;0.00;;;;;;;;;;4906042;29;20024;-63
2020/12/08 03:55:41;;;;;;;0.00;0.00;;;;;;;;;;4921255;28;20641;-64
2020/12/08 03:58:07;;;;;;;0.30;0.30;;;;;;;;;;4921294;28;20042;-63
2020/12/08 04:00:35;;;;;;;0.00;0.00;;;;;;;;;;4906969;29;20036;-65
2020/12/08 04:03:00;;;;;;;0.15;0.15;;;;;;;;;;4906394;29;20432;-64
2020/12/08 04:05:28;;;;;;;0.00;0.00;;;;;;;;;;4907098;29;20039;-63
2020/12/08 04:07:59;;;;;;;0.00;0.00;;;;;;;;;;4904378;29;20331;-64
2020/12/08 04:10:26;;;;;;;0.00;0.00;;;;;;;;;;4903703;29;20247;-63
2020/12/08 04:12:54;;;;;;;0.38;0.38;;;;;;;;;;4906171;29;20070;-63
2020/12/08 04:15:24;;;;;;;0.43;0.43;;;;;;;;;;4906418;29;20059;-64
2020/12/08 04:17:52;;;;;;;0.00;0.00;;;;;;;;;;4905867;29;20071;-64
2020/12/08 04:20:20;;;;;;;0.00;0.00;;;;;;;;;;4902778;29;20031;-63
2020/12/08 04:22:50;;;;;;;0.22;0.22;;;;;;;;;;4903582;29;20051;-63
2020/12/08 04:25:18;;;;;;;0.00;0.00;;;;;;;;;;4907120;29;20043;-64
2020/12/08 04:27:49;;;;;;;0.90;0.85;;;;;;;;;;4919191;28;20401;-63
2020/12/08 04:30:14;;;;;;;0.20;0.20;;;;;;;;;;4907017;29;20040;-63
2020/12/08 04:32:39;;;;;;;0.00;0.00;;;;;;;;;;4905726;29;20491;-64
2020/12/08 04:35:05;;;;;;;0.00;0.00;;;;;;;;;;4919665;28;20387;-64
2020/12/08 04:37:36;;;;;;;2.45;1.50;;;;;;;;;;4905150;29;20046;-63
2020/12/08 04:40:24;;;;;;;0.08;0.08;;;;;;;;;;4919305;28;20106;-64
2020/12/08 04:42:53;;;;;;;0.98;0.57;;;;;;;;;;4905175;29;20028;-64
2020/12/08 04:45:22;;;;;;;0.65;0.65;;;;;;;;;;4906517;29;21800;-64
2020/12/08 04:47:52;;;;;;;0.40;0.38;;;;;;;;;;4904233;29;20578;-64
2020/12/08 04:50:18;;;;;;;0.08;0.08;;;;;;;;;;4903351;29;20647;-64
2020/12/08 04:52:52;;;;;;;0.28;0.28;;;;;;;;;;4905410;29;20059;-64
2020/12/08 04:55:22;;;;;;;0.08;0.08;;;;;;;;;;4918757;28;20148;-64
2020/12/08 04:57:59;;;;;;;0.05;0.05;;;;;;;;;;4890606;29;20043;-64
2020/12/08 05:00:24;;;;;;;0.32;0.32;;;;;;;;;;4905331;29;20043;-64
2020/12/08 05:02:54;;;;;;;0.00;0.00;;;;;;;;;;4907705;29;20036;-64
2020/12/08 05:05:24;;;;;;;0.00;0.00;;;;;;;;;;4919997;28;20039;-63
2020/12/08 05:07:56;;;;;;;0.55;0.55;;;;;;;;;;4904626;29;20122;-64
2020/12/08 05:10:30;;;;;;;0.20;0.20;;;;;;;;;;4905386;29;20070;-64
2020/12/08 05:13:00;;;;;;;0.05;0.05;;;;;;;;;;4906090;29;20035;-63
2020/12/08 05:15:31;;;;;;;0.00;0.00;;;;;;;;;;4903258;29;20052;-63
2020/12/08 05:18:08;;;;;;;0.00;0.00;;;;;;;;;;4904473;29;20036;-63
2020/12/08 05:20:33;;;;;;;0.20;0.20;;;;;;;;;;4902967;29;20027;-64
2020/12/08 05:23:01;;;;;;;0.00;0.00;;;;;;;;;;4902904;29;20048;-65
2020/12/08 05:25:28;;;;;;;0.10;0.10;;;;;;;;;;4906245;29;20295;-63
2020/12/08 05:27:59;;;;;;;0.00;0.00;;;;;;;;;;4906102;29;20099;-63
2020/12/08 05:30:30;;;;;;;0.10;0.10;;;;;;;;;;4902667;29;20515;-64
2020/12/08 05:32:56;;;;;;;0.43;0.43;;;;;;;;;;4905465;29;20034;-63
2020/12/08 05:35:25;;;;;;;0.70;0.70;;;;;;;;;;4903915;29;20039;-64
2020/12/08 05:37:51;;;;;;;0.05;0.05;;;;;;;;;;4905363;29;20072;-64
2020/12/08 05:40:21;;;;;;;0.70;0.60;;;;;;;;;;4905186;29;20500;-64
2020/12/08 05:42:51;;;;;;;0.00;0.00;;;;;;;;;;4906662;29;20392;-63
2020/12/08 05:45:21;;;;;;;0.00;0.00;;;;;;;;;;4919816;28;20502;-63
2020/12/08 05:47:51;;;;;;;0.00;0.00;;;;;;;;;;4904411;29;20035;-63
2020/12/08 05:50:21;;;;;;;0.20;0.20;;;;;;;;;;4906203;29;20047;-64
2020/12/08 05:52:48;;;;;;;0.00;0.00;;;;;;;;;;4908437;29;20867;-63
2020/12/08 05:55:22;;;;;;;0.65;0.38;;;;;;;;;;4922800;28;20058;-64
2020/12/08 05:57:52;;;;;;;0.47;0.47;;;;;;;;;;4906049;29;20067;-64
2020/12/08 06:00:27;;;;;;;0.55;0.55;;;;;;;;;;4908603;29;20043;-63
2020/12/08 06:02:55;;;;;;;0.40;0.38;;;;;;;;;;4907555;29;20629;-64
2020/12/08 06:05:28;;;;;;;0.20;0.20;;;;;;;;;;4906397;29;20042;-64
2020/12/08 06:07:56;;;;;;;0.63;0.63;;;;;;;;;;4891457;29;20039;-62
2020/12/08 06:10:22;;;;;;;0.03;0.03;;;;;;;;;;4909780;29;20067;-63
2020/12/08 06:13:00;;;;;;;0.98;0.88;;;;;;;;;;4908360;29;20038;-64
2020/12/08 06:15:42;;;;;;;0.00;0.00;;;;;;;;;;4909308;29;20433;-64
2020/12/08 06:18:08;;;;;;;0.10;0.10;;;;;;;;;;4909614;29;20284;-63
2020/12/08 06:20:38;;;;;;;0.40;0.40;;;;;;;;;;4907782;29;20157;-63
2020/12/08 06:23:07;;;;;;;0.20;0.20;;;;;;;;;;4907369;29;20032;-65
2020/12/08 06:25:33;;;;;;;0.00;0.00;;;;;;;;;;4889657;29;20039;-64
2020/12/08 06:28:01;;;;;;;2.78;1.25;;;;;;;;;;4922019;28;20059;-63
2020/12/08 06:30:29;;;;;;;0.00;0.00;;;;;;;;;;4907479;29;20122;-64
2020/12/08 06:32:59;;;;;;;0.00;0.00;;;;;;;;;;4907657;29;20031;-64
2020/12/08 06:35:31;;;;;;;0.20;0.20;;;;;;;;;;4906644;29;20040;-64
2020/12/08 06:37:59;;;;;;;0.00;0.00;;;;;;;;;;4906960;29;20027;-64
2020/12/08 06:40:25;;;;;;;0.55;0.55;;;;;;;;;;4904231;29;20539;-64
2020/12/08 06:42:51;;;;;;;1.05;0.95;;;;;;;;;;4907833;29;20075;-64
2020/12/08 06:45:18;;;;;;;0.10;0.10;;;;;;;;;;4906769;29;20495;-64
2020/12/08 06:47:47;;;;;;;0.47;0.47;;;;;;;;;;4921975;28;20062;-63
2020/12/08 06:50:29;;;;;;;0.10;0.10;;;;;;;;;;4907515;29;20166;-64
2020/12/08 06:52:57;;;;;;;0.10;0.10;;;;;;;;;;4907094;29;20036;-63
2020/12/08 06:55:28;;;;;;;0.13;0.13;;;;;;;;;;4906177;29;20075;-64
2020/12/08 06:58:03;;;;;;;0.20;0.20;;;;;;;;;;4907820;29;20039;-64
2020/12/08 07:00:31;;;;;;;0.00;0.00;;;;;;;;;;4920107;28;20178;-63
2020/12/08 07:03:00;;;;;;;2.85;0.88;;;;;;;;;;4921100;28;20036;-63
2020/12/08 07:05:27;;;;;;;0.35;0.35;;;;;;;;;;4907284;29;20344;-64
2020/12/08 07:07:53;;;;;;;0.35;0.20;;;;;;;;;;4905779;29;20270;-62
2020/12/08 07:10:21;;;;;;;0.70;0.55;;;;;;;;;;4907053;29;20798;-64
2020/12/08 07:12:54;;;;;;;0.15;0.15;;;;;;;;;;4906692;29;20032;-63
2020/12/08 07:15:21;;;;;;;;;;;;;;;;;;4922327;28;20094;-63
2020/12/08 07:18:01;;;;;;;0.15;0.15;;;;;;;;;;4906753;29;20005;-64
2020/12/08 07:20:27;;;;;;;0.00;0.00;;;;;;;;;;4908237;29;20507;-64
2020/12/08 07:22:55;;;;;;;0.22;0.22;;;;;;;;;;4905840;29;20629;-64
2020/12/08 07:25:25;;;;;;;0.00;0.00;;;;;;;;;;4905830;29;20464;-63
2020/12/08 07:27:53;;;;;;;0.00;0.00;;;;;;;;;;4905520;29;20035;-64
2020/12/08 07:30:22;;;;;;;0.10;0.10;;;;;;;;;;4905546;29;20028;-64
2020/12/08 07:32:47;;;;;;;0.00;0.00;;;;;;;;;;4922041;28;20071;-64
2020/12/08 07:35:21;;;;;;;0.70;0.70;;;;;;;;;;4906932;29;21480;-64
2020/12/08 07:37:56;;;;;;;0.43;0.43;;;;;;;;;;4921005;28;20684;-64
2020/12/08 07:40:24;;;;;;;0.00;0.00;;;;;;;;;;4923457;28;20151;-65
2020/12/08 07:42:51;;;;;;;0.00;0.00;;;;;;;;;;4896257;29;20720;-64
2020/12/08 07:45:21;;;;;;;0.00;0.00;;;;;;;;;;4901060;29;20032;-64
2020/12/08 07:48:03;;;;;;;0.00;0.00;;;;;;;;;;4903373;29;20119;-63
2020/12/08 07:50:33;;;;;;;0.20;0.20;;;;;;;;;;4906593;29;20112;-64
2020/12/08 07:53:02;;;;;;;0.00;0.00;;;;;;;;;;4906546;29;20027;-64
2020/12/08 07:55:37;;;;;;;0.00;0.00;;;;;;;;;;4907683;29;20028;-64
2020/12/08 07:58:06;;;;;;;0.75;0.75;;;;;;;;;;4905890;29;20070;-64
2020/12/08 08:00:31;;;;;;;0.52;0.52;;;;;;;;;;4904895;29;20522;-64
2020/12/08 08:02:57;;;;;;;0.00;0.00;;;;;;;;;;4906221;29;20077;-64
2020/12/08 08:05:25;;;;;;;0.00;0.00;;;;;;;;;;4904694;29;20040;-64
2020/12/08 08:07:50;;;;;;;0.00;0.00;;;;;;;;;;4904797;29;20502;-64
2020/12/08 08:10:18;;;;;;;0.32;0.32;;;;;;;;;;4905031;29;20419;-64
2020/12/08 08:12:46;;;;;;;0.08;0.08;;;;;;;;;;4903384;29;20039;-63
2020/12/08 08:15:11;;;;;;;0.25;0.25;;;;;;;;;;4902604;29;20491;-63
2020/12/08 08:17:37;;;;;;;0.88;0.82;;;;;;;;;;4907671;29;20023;-63
2020/12/08 08:20:07;;;;;;;0.75;0.63;;;;;;;;;;4905321;29;20106;-63
2020/12/08 08:22:32;;;;;;;0.30;0.30;;;;;;;;;;4904714;29;20317;-64
2020/12/08 08:24:58;;;;;;;0.00;0.00;;;;;;;;;;4904791;29;20542;-64
2020/12/08 08:27:27;;;;;;;1.00;0.80;;;;;;;;;;4903167;29;21784;-63
2020/12/08 08:29:52;;;;;;;0.20;0.20;;;;;;;;;;4907600;29;20024;-63
2020/12/08 08:32:18;;;;;;;1.98;1.75;;;;;;;;;;4905984;29;20066;-64
2020/12/08 08:34:44;;;;;;;0.00;0.00;;;;;;;;;;4905870;29;20038;-64
2020/12/08 08:37:11;;;;;;;0.00;0.00;;;;;;;;;;4918851;28;20042;-63
2020/12/08 08:39:40;;;;;;;0.05;0.05;;;;;;;;;;4906041;29;20040;-64
2020/12/08 08:42:08;;;;;;;0.75;0.75;;;;;;;;;;4904567;29;20483;-64
2020/12/08 08:44:33;;;;;;;9.70;2.42;;;;;;;;;;4905061;29;20032;-64
2020/12/08 08:47:01;;;;;;;0.00;0.00;;;;;;;;;;4906793;29;20040;-64
2020/12/08 08:49:29;;;;;;;0.00;0.00;;;;;;;;;;4904165;29;20040;-64
2020/12/08 08:51:55;;;;;;;0.08;0.08;;;;;;;;;;4906331;29;20039;-64
2020/12/08 08:54:21;;;;;;;0.00;0.00;;;;;;;;;;4907466;29;20342;-63
2020/12/08 08:56:46;;;;;;;0.00;0.00;;;;;;;;;;4905925;29;20440;-64
2020/12/08 08:59:12;;;;;;;0.03;0.03;;;;;;;;;;4905009;29;20044;-64
2020/12/08 09:01:40;;;;;;;0.00;0.00;;;;;;;;;;4905599;29;20358;-63
2020/12/08 09:04:07;;;;;;;0.00;0.00;;;;;;;;;;4902620;29;20311;-64
2020/12/08 09:06:37;;;;;;;0.50;0.50;;;;;;;;;;4903528;28;20039;-64
2020/12/08 09:09:03;;;;;;;0.22;0.22;;;;;;;;;;4906416;29;20031;-65
2020/12/08 09:11:31;;;;;;;1.35;1.10;;;;;;;;;;4906885;29;20038;-64
2020/12/08 09:13:59;;;;;;;0.00;0.00;;;;;;;;;;4903547;29;20066;-65
2020/12/08 09:16:26;;;;;;;0.70;0.35;;;;;;;;;;4904742;29;20028;-64
2020/12/08 09:18:56;;;;;;;1.75;1.23;;;;;;;;;;4905357;29;20542;-64
2020/12/08 09:21:24;;;;;;;0.05;0.05;;;;;;;;;;4902203;29;20120;-66
2020/12/08 09:23:50;;;;;;;0.35;0.35;;;;;;;;;;4903390;29;20036;-64
2020/12/08 09:26:16;;;;;;;0.75;0.43;;;;;;;;;;4906690;29;20157;-64
2020/12/08 09:28:42;;;;;;;0.00;0.00;;;;;;;;;;4906857;29;21711;-64
2020/12/08 09:31:15;;;;;;;0.28;0.28;;;;;;;;;;4907774;29;20474;-65
2020/12/08 09:33:43;;;;;;;0.55;0.55;;;;;;;;;;4908660;29;20024;-62
2020/12/08 09:36:11;;;;;;;0.00;0.00;;;;;;;;;;4908442;29;20142;-64
2020/12/08 09:38:36;;;;;;;0.10;0.10;;;;;;;;;;4907344;29;20039;-64
2020/12/08 09:41:04;;;;;;;0.40;0.40;;;;;;;;;;4906839;29;20280;-65
2020/12/08 09:43:55;;;;;;;2.65;2.45;;;;;;;;;;4909853;29;20035;-64
2020/12/08 09:46:20;;;;;;;0.55;0.55;;;;;;;;;;4909317;29;20337;-66
2020/12/08 09:48:45;;;;;;;0.00;0.00;;;;;;;;;;4908091;29;20039;-65
2020/12/08 09:51:13;;;;;;;0.00;0.00;;;;;;;;;;4909352;29;20036;-64
2020/12/08 09:53:41;;;;;;;0.45;0.45;;;;;;;;;;4906939;29;20083;-64
2020/12/08 09:56:09;;;;;;;0.00;0.00;;;;;;;;;;4892398;29;20039;-64
2020/12/08 09:58:36;;;;;;;1.08;1.08;;;;;;;;;;4908862;29;20067;-64
2020/12/08 10:01:02;;;;;;;1.02;1.02;;;;;;;;;;4908051;29;20027;-65
2020/12/08 10:03:34;;;;;;;3.83;0.35;;;;;;;;;;4904594;29;20038;-64
2020/12/08 10:06:02;;;;;;;0.00;0.00;;;;;;;;;;4922665;28;20246;-65
2020/12/08 10:08:28;;;;;;;1.00;1.00;;;;;;;;;;4904410;28;20043;-65
2020/12/08 10:10:56;;;;;;;3.75;0.90;;;;;;;;;;4907003;29;20486;-65
2020/12/08 10:13:22;;;;;;;0.40;0.40;;;;;;;;;;4908099;29;20708;-65
2020/12/08 10:15:49;;;;;;;0.93;0.93;;;;;;;;;;4922185;28;20047;-65
2020/12/08 10:18:18;;;;;;;0.43;0.43;;;;;;;;;;4907566;29;20110;-65
2020/12/08 10:20:43;;;;;;;0.55;0.55;;;;;;;;;;4906819;29;20051;-65
2020/12/08 10:23:11;;;;;;;0.00;0.00;;;;;;;;;;4909265;29;20031;-65
2020/12/08 10:25:41;;;;;;;5.40;1.65;;;;;;;;;;4920454;28;20481;-66
2020/12/08 10:28:07;;;;;;;0.47;0.47;;;;;;;;;;4907538;29;20032;-65
2020/12/08 10:30:32;;;;;;;1.60;1.58;;;;;;;;;;4907580;29;20114;-64
2020/12/08 10:33:00;;;;;;;0.00;0.00;;;;;;;;;;4923737;28;20565;-64
2020/12/08 10:35:25;;;;;;;0.22;0.22;;;;;;;;;;4908771;29;20027;-65
2020/12/08 10:37:56;;;;;;;2.25;0.63;;;;;;;;;;4906037;29;20048;-65
2020/12/08 10:40:21;;;;;;;0.20;0.20;;;;;;;;;;4908027;29;20411;-65
2020/12/08 10:42:50;;;;;;;1.23;1.23;;;;;;;;;;4905295;29;20034;-65
2020/12/08 10:45:18;;;;;;;0.10;0.10;;;;;;;;;;4908019;29;20050;-65
2020/12/08 10:47:44;;;;;;;0.10;0.10;;;;;;;;;;4905667;29;21983;-64
2020/12/08 10:50:12;;;;;;;1.75;0.93;;;;;;;;;;4921116;28;20596;-64
2020/12/08 10:52:39;;;;;;;1.08;1.02;;;;;;;;;;4906478;29;20216;-64
2020/12/08 10:55:06;;;;;;;0.20;0.20;;;;;;;;;;4905897;29;20038;-64
2020/12/08 10:57:36;;;;;;;1.40;0.50;;;;;;;;;;4906862;29;20035;-64
2020/12/08 11:00:05;;;;;;;1.75;1.60;;;;;;;;;;4906097;29;20067;-65
2020/12/08 11:02:33;;;;;;;0.38;0.30;;;;;;;;;;4904651;29;20162;-65
2020/12/08 11:05:03;;;;;;;4.32;1.25;;;;;;;;;;4907454;29;20526;-66
2020/12/08 11:07:28;;;;;;;0.10;0.10;;;;;;;;;;4906999;29;20356;-66
2020/12/08 11:09:54;;;;;;;0.00;0.00;;;;;;;;;;4920914;28;20044;-65
2020/12/08 11:12:24;;;;;;;1.75;0.98;;;;;;;;;;4908062;29;21711;-65
2020/12/08 11:14:50;;;;;;;0.00;0.00;;;;;;;;;;4921374;28;20055;-65
2020/12/08 11:17:19;;;;;;;0.10;0.10;;;;;;;;;;4906700;29;20040;-65
2020/12/08 11:19:48;;;;;;;0.10;0.10;;;;;;;;;;4905341;29;20082;-65
2020/12/08 11:22:18;;;;;;;0.95;0.95;;;;;;;;;;4888695;29;20049;-67
2020/12/08 11:24:44;;;;;;;2.03;1.45;;;;;;;;;;4921445;28;20511;-66
2020/12/08 11:27:18;;;;;;;0.10;0.10;;;;;;;;;;4903884;29;20215;-65
2020/12/08 11:29:46;;;;;;;0.05;0.05;;;;;;;;;;4905375;29;21621;-66
2020/12/08 11:32:16;;;;;;;0.15;0.15;;;;;;;;;;4907906;29;20090;-65
2020/12/08 11:34:44;;;;;;;0.17;0.17;;;;;;;;;;4921600;28;20565;-65
2020/12/08 11:37:10;;;;;;;0.40;0.40;;;;;;;;;;4906938;29;20035;-66
2020/12/08 11:39:37;;;;;;;0.10;0.10;;;;;;;;;;4905092;29;20055;-66
2020/12/08 11:42:04;;;;;;;0.75;0.65;;;;;;;;;;4906807;29;20172;-65
2020/12/08 11:44:29;;;;;;;0.52;0.52;;;;;;;;;;4906909;29;20044;-65
2020/12/08 11:47:00;;;;;;;0.20;0.20;;;;;;;;;;4903635;29;20416;-65
2020/12/08 11:49:25;;;;;;;0.00;0.00;;;;;;;;;;4920579;28;20534;-65
2020/12/08 11:51:53;;;;;;;0.10;0.10;;;;;;;;;;4904958;29;20055;-67
2020/12/08 11:54:20;;;;;;;0.35;0.35;;;;;;;;;;4906371;29;20171;-66
2020/12/08 11:56:47;;;;;;;0.32;0.32;;;;;;;;;;4905013;29;20031;-66
2020/12/08 11:59:15;;;;;;;0.45;0.45;;;;;;;;;;4920322;28;20419;-66
2020/12/08 12:01:40;;;;;;;0.30;0.30;;;;;;;;;;4906488;29;20722;-66
2020/12/08 12:04:08;;;;;;;0.43;0.43;;;;;;;;;;4902583;29;20058;-66
2020/12/08 12:06:35;;;;;;;0.40;0.40;;;;;;;;;;4888701;29;20381;-66
2020/12/08 12:09:04;;;;;;;3.60;1.60;;;;;;;;;;4906880;29;20039;-64
2020/12/08 12:11:30;;;;;;;0.10;0.10;;;;;;;;;;4902868;29;20486;-66
2020/12/08 12:13:56;;;;;;;0.38;0.38;;;;;;;;;;4906894;29;20044;-66
2020/12/08 12:16:22;;;;;;;1.40;1.30;;;;;;;;;;4904861;29;20047;-65
2020/12/08 12:18:47;;;;;;;0.17;0.17;;;;;;;;;;4920084;28;20035;-65
2020/12/08 12:21:17;;;;;;;1.50;1.40;;;;;;;;;;4903980;29;20291;-65
2020/12/08 12:23:42;;;;;;;3.10;0.40;;;;;;;;;;4906611;29;20503;-65
2020/12/08 12:26:10;;;;;;;0.52;0.52;;;;;;;;;;4903083;29;20040;-67
2020/12/08 12:28:38;;;;;;;0.00;0.00;;;;;;;;;;4902905;29;20047;-67
2020/12/08 12:31:09;;;;;;;0.00;0.00;;;;;;;;;;4905849;29;20053;-66
2020/12/08 12:33:38;;;;;;;0.32;0.32;;;;;;;;;;4919143;28;20034;-67
2020/12/08 12:36:04;;;;;;;1.25;1.15;;;;;;;;;;4906121;29;20397;-66
2020/12/08 12:38:29;;;;;;;2.25;1.27;;;;;;;;;;4904275;29;20027;-65
2020/12/08 12:40:57;;;;;;;1.25;1.20;;;;;;;;;;4920794;28;20122;-67
2020/12/08 12:43:23;;;;;;;1.85;0.75;;;;;;;;;;4906049;29;20393;-66
2020/12/08 12:45:51;;;;;;;0.30;0.30;;;;;;;;;;4905047;29;20047;-65
2020/12/08 12:48:19;;;;;;;0.10;0.10;;;;;;;;;;4906580;29;20138;-66
2020/12/08 12:50:46;;;;;;;0.35;0.35;;;;;;;;;;4918130;28;20104;-65
2020/12/08 12:53:12;;;;;;;0.20;0.20;;;;;;;;;;4920095;28;20393;-66
2020/12/08 12:55:38;;;;;;;0.35;0.35;;;;;;;;;;4903500;29;20035;-66
2020/12/08 12:58:04;;;;;;;0.00;0.00;;;;;;;;;;4904371;29;20155;-65
2020/12/08 13:00:34;;;;;;;0.75;0.75;;;;;;;;;;4918497;28;20028;-65
2020/12/08 13:03:02;;;;;;;0.60;0.60;;;;;;;;;;4905795;29;20027;-66
2020/12/08 13:05:27;;;;;;;0.08;0.08;;;;;;;;;;4905604;29;20507;-66
2020/12/08 13:07:58;;;;;;;0.63;0.63;;;;;;;;;;4905851;29;20842;-66
2020/12/08 13:10:24;;;;;;;0.45;0.45;;;;;;;;;;4904159;29;20580;-66
2020/12/08 13:12:52;;;;;;;0.35;0.35;;;;;;;;;;4903389;29;20113;-66
2020/12/08 13:15:17;;;;;;;0.20;0.20;;;;;;;;;;4906252;29;20543;-66
2020/12/08 13:17:48;;;;;;;1.25;1.15;;;;;;;;;;4904265;29;20055;-66
2020/12/08 13:20:18;;;;;;;0.17;0.17;;;;;;;;;;4903696;29;20490;-65
2020/12/08 13:22:43;;;;;;;0.85;0.85;;;;;;;;;;4903265;29;20071;-66
2020/12/08 13:25:11;;;;;;;3.20;1.95;;;;;;;;;;4919550;28;20119;-66
2020/12/08 13:27:41;;;;;;;0.75;0.75;;;;;;;;;;4903547;29;20044;-67
2020/12/08 13:30:09;;;;;;;0.20;0.20;;;;;;;;;;4902568;29;20046;-66
2020/12/08 13:32:40;;;;;;;1.10;0.90;;;;;;;;;;4905485;29;20674;-66
2020/12/08 13:35:08;;;;;;;0.10;0.10;;;;;;;;;;4888638;29;20048;-66
2020/12/08 13:37:37;;;;;;;1.85;0.52;;;;;;;;;;4903302;29;20922;-66
2020/12/08 13:40:03;;;;;;;0.47;0.47;;;;;;;;;;4904371;29;20047;-65
2020/12/08 13:42:33;;;;;;;0.47;0.47;;;;;;;;;;4905835;29;20059;-65
2020/12/08 13:45:01;;;;;;;3.42;0.88;;;;;;;;;;4903851;29;20031;-66
2020/12/08 13:47:28;;;;;;;0.08;0.08;;;;;;;;;;4902729;29;20510;-67
2020/12/08 13:49:54;;;;;;;0.00;0.00;;;;;;;;;;4902843;29;20099;-68
2020/12/08 13:52:24;;;;;;;0.90;0.75;;;;;;;;;;4903677;29;20282;-65
2020/12/08 13:54:52;;;;;;;0.00;0.00;;;;;;;;;;4919414;28;20103;-66
2020/12/08 13:57:21;;;;;;;0.00;0.00;;;;;;;;;;4904359;29;20074;-65
2020/12/08 13:59:49;;;;;;;0.22;0.22;;;;;;;;;;4905311;29;20871;-66
2020/12/08 14:02:20;;;;;;;0.15;0.15;;;;;;;;;;4919887;28;20042;-66
2020/12/08 14:04:49;;;;;;;0.20;0.20;;;;;;;;;;4904958;29;20032;-66
2020/12/08 14:07:20;;;;;;;0.20;0.20;;;;;;;;;;4904674;29;21782;-66
2020/12/08 14:09:51;;;;;;;0.00;0.00;;;;;;;;;;4904925;29;20477;-68
2020/12/08 14:12:19;;;;;;;0.10;0.10;;;;;;;;;;4908494;29;20047;-67
2020/12/08 14:14:44;;;;;;;0.00;0.00;;;;;;;;;;4923604;28;20058;-67
2020/12/08 14:17:12;;;;;;;0.00;0.00;;;;;;;;;;4909503;29;20031;-66
2020/12/08 14:19:38;;;;;;;0.00;0.00;;;;;;;;;;4907093;29;20090;-66
2020/12/08 14:22:08;;;;;;;0.85;0.85;;;;;;;;;;4907101;29;20523;-66
2020/12/08 14:24:38;;;;;;;1.48;1.38;;;;;;;;;;4907591;29;20050;-66
2020/12/08 14:27:09;;;;;;;0.55;0.55;;;;;;;;;;4907561;29;20074;-66
2020/12/08 14:29:36;;;;;;;0.00;0.00;;;;;;;;;;4905306;29;20043;-66
2020/12/08 14:32:02;;;;;;;0.73;0.73;;;;;;;;;;4907021;29;20043;-67
2020/12/08 14:34:33;;;;;;;0.13;0.13;;;;;;;;;;4923248;28;20507;-67
2020/12/08 14:36:58;;;;;;;0.22;0.22;;;;;;;;;;4905831;28;20044;-66
2020/12/08 14:39:28;;;;;;;0.22;0.22;;;;;;;;;;4908566;29;20047;-67
2020/12/08 14:41:56;;;;;;;0.10;0.10;;;;;;;;;;4907810;29;20055;-66
2020/12/08 14:44:24;;;;;;;0.00;0.00;;;;;;;;;;4908090;29;20031;-67
2020/12/08 14:46:50;;;;;;;0.03;0.03;;;;;;;;;;4920871;28;20065;-67
2020/12/08 14:49:15;;;;;;;0.60;0.60;;;;;;;;;;4921312;28;20039;-67
2020/12/08 14:51:43;;;;;;;0.25;0.13;;;;;;;;;;4906538;29;20044;-66
2020/12/08 14:54:09;;;;;;;0.38;0.38;;;;;;;;;;4905415;29;20023;-65
2020/12/08 14:56:35;;;;;;;1.42;1.33;;;;;;;;;;4921534;28;20106;-67
2020/12/08 14:59:00;;;;;;;0.45;0.45;;;;;;;;;;4906775;29;20028;-67
2020/12/08 15:01:28;;;;;;;0.05;0.05;;;;;;;;;;4889985;29;20150;-66